sensor_id;sensor_type;location;lat;lon;timestamp;temperature;humidity
26254;DHT22;53339;51.378;0.094;2022-12-10T00:01:37;-0.50;89.20
26254;DHT22;53339;51.378;0.094;2022-12-10T00:04:04;-0.50;89.20
26254;DHT22;53339;51.378;0.094;2022-12-10T00:06:33;-0.50;89.20
26254;DHT22;53339;51.378;0.094;2022-12-10T00:09:03;-0.50;89.20
26254;DHT22;53339;51.378;0.094;2022-12-10T00:11:31;-0.40;89.30
26254;DHT22;53339;51.378;0.094;2022-12-10T00:13:59;-0.40;89.20
26254;DHT22;53339;51.378;0.094;2022-12-10T00:16:28;-0.40;89.10
26254;DHT22;53339;51.378;0.094;2022-12-10T00:18:55;-0.50;88.60
26254;DHT22;53339;51.378;0.094;2022-12-10T00:21:29;-0.80;88.30
26254;DHT22;53339;51.378;0.094;2022-12-10T00:23:58;-0.90;88.50
26254;DHT22;53339;51.378;0.094;2022-12-10T00:26:28;-0.90;88.60
26254;DHT22;53339;51.378;0.094;2022-12-10T00:28:57;-1.10;88.20
26254;DHT22;53339;51.378;0.094;2022-12-10T00:31:27;-1.30;88.20
26254;DHT22;53339;51.378;0.094;2022-12-10T00:33:56;-1.30;88.70
26254;DHT22;53339;51.378;0.094;2022-12-10T00:36:28;-1.30;88.90
26254;DHT22;53339;51.378;0.094;2022-12-10T00:38:56;-1.20;89.10
26254;DHT22;53339;51.378;0.094;2022-12-10T00:41:28;-1.20;89.20
26254;DHT22;53339;51.378;0.094;2022-12-10T00:43:55;-1.10;89.20
26254;DHT22;53339;51.378;0.094;2022-12-10T00:46:23;-1.00;89.20
26254;DHT22;53339;51.378;0.094;2022-12-10T00:48:50;-1.00;89.20
26254;DHT22;53339;51.378;0.094;2022-12-10T00:51:21;-1.00;89.20
26254;DHT22;53339;51.378;0.094;2022-12-10T00:53:51;-0.90;89.20
26254;DHT22;53339;51.378;0.094;2022-12-10T00:56:23;-0.90;89.30
26254;DHT22;53339;51.378;0.094;2022-12-10T00:58:51;-0.80;89.40
26254;DHT22;53339;51.378;0.094;2022-12-10T01:01:29;-0.80;89.40
26254;DHT22;53339;51.378;0.094;2022-12-10T01:04:00;-0.70;89.40
26254;DHT22;53339;51.378;0.094;2022-12-10T01:06:31;-0.60;89.30
26254;DHT22;53339;51.378;0.094;2022-12-10T01:09:04;-0.70;89.10
26254;DHT22;53339;51.378;0.094;2022-12-10T01:11:36;-0.70;89.10
26254;DHT22;53339;51.378;0.094;2022-12-10T01:14:06;-0.80;89.00
26254;DHT22;53339;51.378;0.094;2022-12-10T01:16:34;-0.70;88.90
26254;DHT22;53339;51.378;0.094;2022-12-10T01:19:02;-0.80;89.00
26254;DHT22;53339;51.378;0.094;2022-12-10T01:21:30;-0.80;88.90
26254;DHT22;53339;51.378;0.094;2022-12-10T01:23:58;-0.90;88.50
26254;DHT22;53339;51.378;0.094;2022-12-10T01:26:28;-1.20;88.00
26254;DHT22;53339;51.378;0.094;2022-12-10T01:28:57;-1.30;88.40
26254;DHT22;53339;51.378;0.094;2022-12-10T01:31:31;-1.30;88.70
26254;DHT22;53339;51.378;0.094;2022-12-10T01:33:59;-1.40;88.40
26254;DHT22;53339;51.378;0.094;2022-12-10T01:36:35;-1.60;88.10
26254;DHT22;53339;51.378;0.094;2022-12-10T01:39:05;-1.60;88.60
26254;DHT22;53339;51.378;0.094;2022-12-10T01:41:39;-1.60;88.90
26254;DHT22;53339;51.378;0.094;2022-12-10T01:46:39;-1.70;88.60
26254;DHT22;53339;51.378;0.094;2022-12-10T01:49:13;-1.60;89.10
26254;DHT22;53339;51.378;0.094;2022-12-10T01:51:43;-1.40;89.30
26254;DHT22;53339;51.378;0.094;2022-12-10T01:54:17;-1.40;89.30
26254;DHT22;53339;51.378;0.094;2022-12-10T01:56:58;-1.40;89.00
26254;DHT22;53339;51.378;0.094;2022-12-10T01:59:27;-1.40;89.10
26254;DHT22;53339;51.378;0.094;2022-12-10T02:02:10;-1.40;89.20
26254;DHT22;53339;51.378;0.094;2022-12-10T02:15:43;-1.80;88.30
26254;DHT22;53339;51.378;0.094;2022-12-10T02:18:35;-1.90;88.30
26254;DHT22;53339;51.378;0.094;2022-12-10T02:21:10;-1.80;88.60
26254;DHT22;53339;51.378;0.094;2022-12-10T02:23:44;-1.90;88.50
26254;DHT22;53339;51.378;0.094;2022-12-10T02:26:31;-2.10;88.10
26254;DHT22;53339;51.378;0.094;2022-12-10T02:29:16;-1.90;88.20
26254;DHT22;53339;51.378;0.094;2022-12-10T02:31:52;-1.80;88.30
26254;DHT22;53339;51.378;0.094;2022-12-10T02:34:21;-1.70;88.40
26254;DHT22;53339;51.378;0.094;2022-12-10T02:36:52;-1.70;88.40
26254;DHT22;53339;51.378;0.094;2022-12-10T02:39:26;-1.80;88.50
26254;DHT22;53339;51.378;0.094;2022-12-10T02:42:00;-1.80;88.50
26254;DHT22;53339;51.378;0.094;2022-12-10T02:44:30;-1.80;88.40
26254;DHT22;53339;51.378;0.094;2022-12-10T02:46:59;-1.90;88.40
26254;DHT22;53339;51.378;0.094;2022-12-10T02:49:34;-1.90;88.40
26254;DHT22;53339;51.378;0.094;2022-12-10T02:52:11;-1.90;88.50
26254;DHT22;53339;51.378;0.094;2022-12-10T02:54:45;-1.90;88.40
26254;DHT22;53339;51.378;0.094;2022-12-10T03:05:15;-2.10;88.40
26254;DHT22;53339;51.378;0.094;2022-12-10T03:08:13;-2.10;88.20
26254;DHT22;53339;51.378;0.094;2022-12-10T03:13:12;-2.40;87.90
26254;DHT22;53339;51.378;0.094;2022-12-10T03:15:42;-2.60;87.70
26254;DHT22;53339;51.378;0.094;2022-12-10T03:18:15;-2.70;87.90
26254;DHT22;53339;51.378;0.094;2022-12-10T03:20:45;-2.60;88.30
26254;DHT22;53339;51.378;0.094;2022-12-10T03:23:15;-2.60;88.50
26254;DHT22;53339;51.378;0.094;2022-12-10T03:25:44;-2.60;88.50
26254;DHT22;53339;51.378;0.094;2022-12-10T03:28:14;-2.40;89.00
26254;DHT22;53339;51.378;0.094;2022-12-10T03:30:43;-2.30;89.00
26254;DHT22;53339;51.378;0.094;2022-12-10T03:33:12;-2.30;88.60
26254;DHT22;53339;51.378;0.094;2022-12-10T03:35:40;-2.40;88.20
26254;DHT22;53339;51.378;0.094;2022-12-10T03:38:08;-2.50;88.00
26254;DHT22;53339;51.378;0.094;2022-12-10T03:40:36;-2.60;88.30
26254;DHT22;53339;51.378;0.094;2022-12-10T03:43:04;-2.50;88.60
26254;DHT22;53339;51.378;0.094;2022-12-10T03:45:32;-2.40;88.80
26254;DHT22;53339;51.378;0.094;2022-12-10T03:47:59;-2.30;89.10
26254;DHT22;53339;51.378;0.094;2022-12-10T03:50:27;-2.10;89.40
26254;DHT22;53339;51.378;0.094;2022-12-10T03:52:54;-2.00;89.30
26254;DHT22;53339;51.378;0.094;2022-12-10T03:55:22;-2.00;89.00
26254;DHT22;53339;51.378;0.094;2022-12-10T03:57:50;-2.00;88.70
26254;DHT22;53339;51.378;0.094;2022-12-10T04:00:17;-2.10;88.60
26254;DHT22;53339;51.378;0.094;2022-12-10T04:02:45;-2.10;88.60
26254;DHT22;53339;51.378;0.094;2022-12-10T04:05:12;-2.10;88.50
26254;DHT22;53339;51.378;0.094;2022-12-10T04:07:40;-2.20;88.60
26254;DHT22;53339;51.378;0.094;2022-12-10T04:10:08;-2.00;89.00
26254;DHT22;53339;51.378;0.094;2022-12-10T04:12:36;-1.90;89.20
26254;DHT22;53339;51.378;0.094;2022-12-10T04:15:04;-1.80;89.20
26254;DHT22;53339;51.378;0.094;2022-12-10T04:18:10;-1.70;89.30
26254;DHT22;53339;51.378;0.094;2022-12-10T04:20:37;-1.60;89.40
26254;DHT22;53339;51.378;0.094;2022-12-10T04:23:24;-1.60;89.30
26254;DHT22;53339;51.378;0.094;2022-12-10T04:26:10;-1.50;89.10
26254;DHT22;53339;51.378;0.094;2022-12-10T04:28:56;-1.50;89.30
26254;DHT22;53339;51.378;0.094;2022-12-10T04:31:24;-1.40;89.40
26254;DHT22;53339;51.378;0.094;2022-12-10T04:33:51;-1.30;89.40
26254;DHT22;53339;51.378;0.094;2022-12-10T04:36:19;-1.30;89.20
26254;DHT22;53339;51.378;0.094;2022-12-10T04:38:48;-1.20;89.40
26254;DHT22;53339;51.378;0.094;2022-12-10T04:41:15;-1.10;89.50
26254;DHT22;53339;51.378;0.094;2022-12-10T04:43:43;-1.10;89.50
26254;DHT22;53339;51.378;0.094;2022-12-10T04:46:11;-1.00;89.40
26254;DHT22;53339;51.378;0.094;2022-12-10T04:48:38;-1.00;89.40
26254;DHT22;53339;51.378;0.094;2022-12-10T04:51:06;-0.90;89.50
26254;DHT22;53339;51.378;0.094;2022-12-10T04:53:34;-0.80;89.50
26254;DHT22;53339;51.378;0.094;2022-12-10T04:56:02;-0.70;89.50
26254;DHT22;53339;51.378;0.094;2022-12-10T04:58:32;-0.70;89.50
26254;DHT22;53339;51.378;0.094;2022-12-10T05:01:05;-0.70;89.40
26254;DHT22;53339;51.378;0.094;2022-12-10T05:03:33;-0.70;89.10
26254;DHT22;53339;51.378;0.094;2022-12-10T05:06:09;-0.80;88.90
26254;DHT22;53339;51.378;0.094;2022-12-10T05:08:39;-0.80;89.00
26254;DHT22;53339;51.378;0.094;2022-12-10T05:11:12;-0.80;89.20
26254;DHT22;53339;51.378;0.094;2022-12-10T05:13:41;-0.90;89.00
26254;DHT22;53339;51.378;0.094;2022-12-10T05:16:13;-0.90;88.80
26254;DHT22;53339;51.378;0.094;2022-12-10T05:18:41;-1.00;88.90
26254;DHT22;53339;51.378;0.094;2022-12-10T05:21:14;-0.90;89.10
26254;DHT22;53339;51.378;0.094;2022-12-10T05:23:44;-0.90;89.20
26254;DHT22;53339;51.378;0.094;2022-12-10T05:26:15;-0.90;89.20
26254;DHT22;53339;51.378;0.094;2022-12-10T05:31:33;-0.80;89.30
26254;DHT22;53339;51.378;0.094;2022-12-10T05:34:00;-0.90;88.90
26254;DHT22;53339;51.378;0.094;2022-12-10T05:36:29;-1.00;88.50
26254;DHT22;53339;51.378;0.094;2022-12-10T05:38:58;-1.10;88.80
26254;DHT22;53339;51.378;0.094;2022-12-10T05:41:29;-1.00;89.00
26254;DHT22;53339;51.378;0.094;2022-12-10T05:43:58;-1.00;89.00
26254;DHT22;53339;51.378;0.094;2022-12-10T05:46:29;-1.10;88.90
26254;DHT22;53339;51.378;0.094;2022-12-10T05:48:58;-1.10;89.20
26254;DHT22;53339;51.378;0.094;2022-12-10T05:51:29;-1.00;89.20
26254;DHT22;53339;51.378;0.094;2022-12-10T05:53:57;-1.00;89.10
26254;DHT22;53339;51.378;0.094;2022-12-10T05:56:26;-1.10;88.80
26254;DHT22;53339;51.378;0.094;2022-12-10T05:58:57;-1.10;89.00
26254;DHT22;53339;51.378;0.094;2022-12-10T06:01:27;-1.10;89.20
26254;DHT22;53339;51.378;0.094;2022-12-10T06:03:57;-1.00;89.20
26254;DHT22;53339;51.378;0.094;2022-12-10T06:06:29;-1.00;89.20
26254;DHT22;53339;51.378;0.094;2022-12-10T06:08:57;-0.90;89.40
26254;DHT22;53339;51.378;0.094;2022-12-10T06:11:25;-0.80;89.50
26254;DHT22;53339;51.378;0.094;2022-12-10T06:13:54;-0.80;89.40
26254;DHT22;53339;51.378;0.094;2022-12-10T06:16:23;-0.80;89.20
26254;DHT22;53339;51.378;0.094;2022-12-10T06:18:51;-0.80;89.20
26254;DHT22;53339;51.378;0.094;2022-12-10T06:21:20;-0.80;89.20
26254;DHT22;53339;51.378;0.094;2022-12-10T06:23:49;-0.70;89.20
26254;DHT22;53339;51.378;0.094;2022-12-10T06:26:21;-0.70;89.30
26254;DHT22;53339;51.378;0.094;2022-12-10T06:28:49;-0.70;89.30
26254;DHT22;53339;51.378;0.094;2022-12-10T06:31:18;-0.60;89.30
26254;DHT22;53339;51.378;0.094;2022-12-10T06:33:45;-0.60;89.10
26254;DHT22;53339;51.378;0.094;2022-12-10T06:36:14;-0.70;89.00
26254;DHT22;53339;51.378;0.094;2022-12-10T06:38:43;-0.70;89.10
26254;DHT22;53339;51.378;0.094;2022-12-10T06:41:13;-0.70;89.10
26254;DHT22;53339;51.378;0.094;2022-12-10T06:43:41;-0.70;88.90
26254;DHT22;53339;51.378;0.094;2022-12-10T06:46:11;-0.80;88.50
26254;DHT22;53339;51.378;0.094;2022-12-10T06:48:39;-0.90;88.80
26254;DHT22;53339;51.378;0.094;2022-12-10T06:51:07;-0.80;89.00
26254;DHT22;53339;51.378;0.094;2022-12-10T06:53:36;-0.80;89.00
26254;DHT22;53339;51.378;0.094;2022-12-10T06:56:05;-0.80;88.90
26254;DHT22;53339;51.378;0.094;2022-12-10T06:58:34;-0.80;89.00
26254;DHT22;53339;51.378;0.094;2022-12-10T07:01:07;-0.80;89.10
26254;DHT22;53339;51.378;0.094;2022-12-10T07:03:36;-0.80;89.00
26254;DHT22;53339;51.378;0.094;2022-12-10T07:06:04;-0.80;88.90
26254;DHT22;53339;51.378;0.094;2022-12-10T07:08:32;-0.80;89.00
26254;DHT22;53339;51.378;0.094;2022-12-10T07:11:04;-0.80;89.00
26254;DHT22;53339;51.378;0.094;2022-12-10T07:13:32;-0.80;89.00
26254;DHT22;53339;51.378;0.094;2022-12-10T07:16:00;-0.80;88.90
26254;DHT22;53339;51.378;0.094;2022-12-10T07:18:27;-0.90;89.10
26254;DHT22;53339;51.378;0.094;2022-12-10T07:20:55;-0.80;89.20
26254;DHT22;53339;51.378;0.094;2022-12-10T07:23:23;-0.80;89.10
26254;DHT22;53339;51.378;0.094;2022-12-10T07:25:54;-0.80;89.10
26254;DHT22;53339;51.378;0.094;2022-12-10T07:28:22;-0.80;89.10
26254;DHT22;53339;51.378;0.094;2022-12-10T07:30:49;-0.70;89.20
26254;DHT22;53339;51.378;0.094;2022-12-10T07:33:16;-0.80;89.10
26254;DHT22;53339;51.378;0.094;2022-12-10T07:35:44;-0.80;89.10
26254;DHT22;53339;51.378;0.094;2022-12-10T07:38:15;-0.80;89.20
26254;DHT22;53339;51.378;0.094;2022-12-10T07:40:42;-0.70;89.30
26254;DHT22;53339;51.378;0.094;2022-12-10T07:43:12;-0.70;89.30
26254;DHT22;53339;51.378;0.094;2022-12-10T07:45:39;-0.70;89.20
26254;DHT22;53339;51.378;0.094;2022-12-10T07:48:07;-0.70;89.20
26254;DHT22;53339;51.378;0.094;2022-12-10T07:50:34;-0.70;89.20
26254;DHT22;53339;51.378;0.094;2022-12-10T07:53:02;-0.70;89.30
26254;DHT22;53339;51.378;0.094;2022-12-10T07:55:30;-0.60;89.20
26254;DHT22;53339;51.378;0.094;2022-12-10T07:57:57;-0.60;89.30
26254;DHT22;53339;51.378;0.094;2022-12-10T08:00:25;-0.60;89.30
26254;DHT22;53339;51.378;0.094;2022-12-10T08:02:52;-0.60;89.20
26254;DHT22;53339;51.378;0.094;2022-12-10T08:05:20;-0.70;88.80
26254;DHT22;53339;51.378;0.094;2022-12-10T08:07:47;-0.90;88.70
26254;DHT22;53339;51.378;0.094;2022-12-10T08:10:15;-0.90;89.00
26254;DHT22;53339;51.378;0.094;2022-12-10T08:12:42;-0.80;89.10
26254;DHT22;53339;51.378;0.094;2022-12-10T08:15:09;-0.90;88.90
26254;DHT22;53339;51.378;0.094;2022-12-10T08:17:38;-0.90;89.20
26254;DHT22;53339;51.378;0.094;2022-12-10T08:20:06;-0.80;89.50
26254;DHT22;53339;51.378;0.094;2022-12-10T08:22:34;-0.70;89.60
26254;DHT22;53339;51.378;0.094;2022-12-10T08:25:03;-0.70;89.60
26254;DHT22;53339;51.378;0.094;2022-12-10T08:27:31;-0.60;89.60
26254;DHT22;53339;51.378;0.094;2022-12-10T08:29:58;-0.50;89.70
26254;DHT22;53339;51.378;0.094;2022-12-10T08:32:26;-0.50;89.70
26254;DHT22;53339;51.378;0.094;2022-12-10T08:34:53;-0.50;89.60
26254;DHT22;53339;51.378;0.094;2022-12-10T08:37:21;-0.40;89.70
26254;DHT22;53339;51.378;0.094;2022-12-10T08:39:48;-0.40;89.80
26254;DHT22;53339;51.378;0.094;2022-12-10T08:42:16;-0.30;89.80
26254;DHT22;53339;51.378;0.094;2022-12-10T08:44:46;-0.30;89.70
26254;DHT22;53339;51.378;0.094;2022-12-10T08:47:15;-0.30;89.60
26254;DHT22;53339;51.378;0.094;2022-12-10T08:49:43;-0.30;89.70
26254;DHT22;53339;51.378;0.094;2022-12-10T08:52:10;-0.20;89.70
26254;DHT22;53339;51.378;0.094;2022-12-10T08:54:37;-0.20;89.80
26254;DHT22;53339;51.378;0.094;2022-12-10T08:57:05;-0.10;89.90
26254;DHT22;53339;51.378;0.094;2022-12-10T08:59:32;0.00;90.00
26254;DHT22;53339;51.378;0.094;2022-12-10T09:02:00;0.00;90.00
26254;DHT22;53339;51.378;0.094;2022-12-10T09:04:28;-0.10;89.30
26254;DHT22;53339;51.378;0.094;2022-12-10T09:06:55;-0.20;89.10
26254;DHT22;53339;51.378;0.094;2022-12-10T09:09:23;-0.20;89.60
26254;DHT22;53339;51.378;0.094;2022-12-10T09:11:50;-0.10;89.80
26254;DHT22;53339;51.378;0.094;2022-12-10T09:14:18;-0.10;89.70
26254;DHT22;53339;51.378;0.094;2022-12-10T09:16:45;-0.10;89.70
26254;DHT22;53339;51.378;0.094;2022-12-10T09:19:13;0.00;89.90
26254;DHT22;53339;51.378;0.094;2022-12-10T09:21:46;0.00;90.00
26254;DHT22;53339;51.378;0.094;2022-12-10T09:24:14;0.00;89.90
26254;DHT22;53339;51.378;0.094;2022-12-10T09:26:42;0.00;89.90
26254;DHT22;53339;51.378;0.094;2022-12-10T09:29:09;0.10;90.10
26254;DHT22;53339;51.378;0.094;2022-12-10T09:31:37;0.30;90.30
26254;DHT22;53339;51.378;0.094;2022-12-10T09:34:04;0.40;90.40
26254;DHT22;53339;51.378;0.094;2022-12-10T09:36:32;0.60;90.50
26254;DHT22;53339;51.378;0.094;2022-12-10T09:39:00;0.70;90.60
26254;DHT22;53339;51.378;0.094;2022-12-10T09:41:52;0.90;90.50
26254;DHT22;53339;51.378;0.094;2022-12-10T09:47:37;1.10;90.20
26254;DHT22;53339;51.378;0.094;2022-12-10T09:50:19;1.20;90.10
26254;DHT22;53339;51.378;0.094;2022-12-10T09:52:48;1.30;89.90
26254;DHT22;53339;51.378;0.094;2022-12-10T09:55:28;1.30;89.60
26254;DHT22;53339;51.378;0.094;2022-12-10T09:57:58;1.40;89.60
26254;DHT22;53339;51.378;0.094;2022-12-10T10:00:34;1.50;89.50
26254;DHT22;53339;51.378;0.094;2022-12-10T10:03:03;1.50;89.40
26254;DHT22;53339;51.378;0.094;2022-12-10T10:05:36;1.60;89.10
26254;DHT22;53339;51.378;0.094;2022-12-10T10:08:23;1.60;89.10
26254;DHT22;53339;51.378;0.094;2022-12-10T10:10:54;1.60;88.90
26254;DHT22;53339;51.378;0.094;2022-12-10T10:16:30;1.60;88.80
26254;DHT22;53339;51.378;0.094;2022-12-10T10:19:05;1.60;88.80
26254;DHT22;53339;51.378;0.094;2022-12-10T10:21:48;1.60;88.90
26254;DHT22;53339;51.378;0.094;2022-12-10T10:24:21;1.70;89.00
26254;DHT22;53339;51.378;0.094;2022-12-10T10:26:53;1.80;88.90
26254;DHT22;53339;51.378;0.094;2022-12-10T10:29:23;1.80;88.90
26254;DHT22;53339;51.378;0.094;2022-12-10T10:34:39;1.80;88.30
26254;DHT22;53339;51.378;0.094;2022-12-10T10:37:47;1.70;88.20
26254;DHT22;53339;51.378;0.094;2022-12-10T10:40:26;1.60;88.50
26254;DHT22;53339;51.378;0.094;2022-12-10T10:42:56;1.60;88.50
26254;DHT22;53339;51.378;0.094;2022-12-10T10:50:40;1.80;88.90
26254;DHT22;53339;51.378;0.094;2022-12-10T10:53:31;1.90;88.70
26254;DHT22;53339;51.378;0.094;2022-12-10T10:56:08;1.90;88.40
26254;DHT22;53339;51.378;0.094;2022-12-10T10:59:29;2.00;88.40
26254;DHT22;53339;51.378;0.094;2022-12-10T11:01:58;2.10;88.40
26254;DHT22;53339;51.378;0.094;2022-12-10T11:04:44;2.20;88.20
26254;DHT22;53339;51.378;0.094;2022-12-10T11:09:53;2.20;88.10
26254;DHT22;53339;51.378;0.094;2022-12-10T11:12:36;2.30;88.00
26254;DHT22;53339;51.378;0.094;2022-12-10T11:15:29;2.30;87.70
26254;DHT22;53339;51.378;0.094;2022-12-10T11:17:57;2.30;87.60
26254;DHT22;53339;51.378;0.094;2022-12-10T11:20:31;2.30;87.60
26254;DHT22;53339;51.378;0.094;2022-12-10T11:23:09;2.40;87.50
26254;DHT22;53339;51.378;0.094;2022-12-10T11:25:50;2.40;87.50
26254;DHT22;53339;51.378;0.094;2022-12-10T11:28:35;2.40;87.40
26254;DHT22;53339;51.378;0.094;2022-12-10T11:39:23;2.60;86.70
26254;DHT22;53339;51.378;0.094;2022-12-10T11:44:53;2.60;86.00
26254;DHT22;53339;51.378;0.094;2022-12-10T11:50:29;2.60;86.30
26254;DHT22;53339;51.378;0.094;2022-12-10T12:10:01;2.60;86.00
26254;DHT22;53339;51.378;0.094;2022-12-10T12:12:54;2.70;85.60
26254;DHT22;53339;51.378;0.094;2022-12-10T12:21:12;3.00;84.70
26254;DHT22;53339;51.378;0.094;2022-12-10T12:23:56;2.90;84.40
26254;DHT22;53339;51.378;0.094;2022-12-10T12:26:39;2.90;84.70
26254;DHT22;53339;51.378;0.094;2022-12-10T12:29:25;3.00;85.00
26254;DHT22;53339;51.378;0.094;2022-12-10T12:32:04;3.00;84.80
26254;DHT22;53339;51.378;0.094;2022-12-10T12:34:53;3.00;84.30
26254;DHT22;53339;51.378;0.094;2022-12-10T12:38:14;3.00;84.80
26254;DHT22;53339;51.378;0.094;2022-12-10T12:40:34;3.10;85.00
26254;DHT22;53339;51.378;0.094;2022-12-10T12:43:10;3.10;84.80
26254;DHT22;53339;51.378;0.094;2022-12-10T12:45:46;3.00;84.70
26254;DHT22;53339;51.378;0.094;2022-12-10T12:48:19;3.00;84.70
26254;DHT22;53339;51.378;0.094;2022-12-10T12:51:16;3.20;84.60
26254;DHT22;53339;51.378;0.094;2022-12-10T12:53:45;3.20;83.80
26254;DHT22;53339;51.378;0.094;2022-12-10T13:04:53;3.50;82.50
26254;DHT22;53339;51.378;0.094;2022-12-10T13:18:19;3.60;80.90
26254;DHT22;53339;51.378;0.094;2022-12-10T13:21:27;3.60;81.30
26254;DHT22;53339;51.378;0.094;2022-12-10T13:24:11;3.60;81.10
26254;DHT22;53339;51.378;0.094;2022-12-10T13:29:56;3.70;80.90
26254;DHT22;53339;51.378;0.094;2022-12-10T13:37:36;3.50;80.20
26254;DHT22;53339;51.378;0.094;2022-12-10T13:42:38;3.50;80.80
26254;DHT22;53339;51.378;0.094;2022-12-10T13:45:28;3.40;80.40
26254;DHT22;53339;51.378;0.094;2022-12-10T13:48:16;3.30;81.00
26254;DHT22;53339;51.378;0.094;2022-12-10T13:54:01;3.30;80.90
26254;DHT22;53339;51.378;0.094;2022-12-10T13:57:11;3.00;80.40
26254;DHT22;53339;51.378;0.094;2022-12-10T14:02:31;3.00;82.40
26254;DHT22;53339;51.378;0.094;2022-12-10T14:07:52;3.00;82.20
26254;DHT22;53339;51.378;0.094;2022-12-10T14:10:25;3.10;82.80
26254;DHT22;53339;51.378;0.094;2022-12-10T14:12:54;3.20;82.50
26254;DHT22;53339;51.378;0.094;2022-12-10T14:15:24;3.20;81.10
26254;DHT22;53339;51.378;0.094;2022-12-10T14:18:08;3.10;82.20
26254;DHT22;53339;51.378;0.094;2022-12-10T14:20:44;3.20;83.10
26254;DHT22;53339;51.378;0.094;2022-12-10T14:23:30;3.30;82.80
26254;DHT22;53339;51.378;0.094;2022-12-10T14:26:21;3.20;82.20
26254;DHT22;53339;51.378;0.094;2022-12-10T14:29:01;3.20;82.70
26254;DHT22;53339;51.378;0.094;2022-12-10T14:31:30;3.30;82.80
26254;DHT22;53339;51.378;0.094;2022-12-10T14:34:07;3.30;82.40
26254;DHT22;53339;51.378;0.094;2022-12-10T14:36:39;3.20;82.20
26254;DHT22;53339;51.378;0.094;2022-12-10T14:39:15;3.10;82.70
26254;DHT22;53339;51.378;0.094;2022-12-10T14:41:44;3.20;83.10
26254;DHT22;53339;51.378;0.094;2022-12-10T14:44:14;3.20;82.30
26254;DHT22;53339;51.378;0.094;2022-12-10T14:46:42;3.00;82.00
26254;DHT22;53339;51.378;0.094;2022-12-10T14:49:38;2.90;82.70
26254;DHT22;53339;51.378;0.094;2022-12-10T14:52:15;2.90;83.20
26254;DHT22;53339;51.378;0.094;2022-12-10T14:54:45;2.90;82.60
26254;DHT22;53339;51.378;0.094;2022-12-10T14:57:25;2.70;82.60
26254;DHT22;53339;51.378;0.094;2022-12-10T14:59:59;2.70;83.30
26254;DHT22;53339;51.378;0.094;2022-12-10T15:02:34;2.70;83.50
26254;DHT22;53339;51.378;0.094;2022-12-10T15:05:13;2.70;82.70
26254;DHT22;53339;51.378;0.094;2022-12-10T15:07:58;2.50;82.70
26254;DHT22;53339;51.378;0.094;2022-12-10T15:13:02;2.40;83.90
26254;DHT22;53339;51.378;0.094;2022-12-10T15:15:34;2.40;83.40
26254;DHT22;53339;51.378;0.094;2022-12-10T15:18:08;2.30;83.60
26254;DHT22;53339;51.378;0.094;2022-12-10T15:20:48;2.20;84.00
26254;DHT22;53339;51.378;0.094;2022-12-10T15:28:35;2.00;84.00
26254;DHT22;53339;51.378;0.094;2022-12-10T15:33:58;2.00;84.90
26254;DHT22;53339;51.378;0.094;2022-12-10T15:36:34;1.90;84.40
26254;DHT22;53339;51.378;0.094;2022-12-10T15:41:57;1.80;85.20
26254;DHT22;53339;51.378;0.094;2022-12-10T15:47:22;1.60;84.80
26254;DHT22;53339;51.378;0.094;2022-12-10T15:49:53;1.60;85.30
26254;DHT22;53339;51.378;0.094;2022-12-10T15:52:24;1.70;85.70
26254;DHT22;53339;51.378;0.094;2022-12-10T15:54:53;1.70;85.70
26254;DHT22;53339;51.378;0.094;2022-12-10T15:57:24;1.70;85.50
26254;DHT22;53339;51.378;0.094;2022-12-10T15:59:55;1.60;85.50
26254;DHT22;53339;51.378;0.094;2022-12-10T16:05:27;1.50;85.10
26254;DHT22;53339;51.378;0.094;2022-12-10T16:07:58;1.30;85.10
26254;DHT22;53339;51.378;0.094;2022-12-10T16:10:28;1.20;85.50
26254;DHT22;53339;51.378;0.094;2022-12-10T16:13:02;1.20;86.00
26254;DHT22;53339;51.378;0.094;2022-12-10T16:15:33;1.20;85.80
26254;DHT22;53339;51.378;0.094;2022-12-10T16:18:04;1.10;85.90
26254;DHT22;53339;51.378;0.094;2022-12-10T16:20:32;1.00;86.00
26254;DHT22;53339;51.378;0.094;2022-12-10T16:23:00;1.10;86.50
26254;DHT22;53339;51.378;0.094;2022-12-10T16:25:29;1.00;86.10
26254;DHT22;53339;51.378;0.094;2022-12-10T16:27:57;0.90;86.10
26254;DHT22;53339;51.378;0.094;2022-12-10T16:33:03;0.90;86.50
26254;DHT22;53339;51.378;0.094;2022-12-10T16:35:30;0.80;86.10
26254;DHT22;53339;51.378;0.094;2022-12-10T16:37:58;0.60;86.10
26254;DHT22;53339;51.378;0.094;2022-12-10T16:40:27;0.60;86.30
26254;DHT22;53339;51.378;0.094;2022-12-10T16:42:56;0.60;86.60
26254;DHT22;53339;51.378;0.094;2022-12-10T16:45:24;0.60;86.50
26254;DHT22;53339;51.378;0.094;2022-12-10T16:47:54;0.50;86.40
26254;DHT22;53339;51.378;0.094;2022-12-10T16:50:22;0.40;86.50
26254;DHT22;53339;51.378;0.094;2022-12-10T16:52:51;0.40;86.80
26254;DHT22;53339;51.378;0.094;2022-12-10T16:55:25;0.40;86.60
26254;DHT22;53339;51.378;0.094;2022-12-10T16:57:53;0.30;86.50
26254;DHT22;53339;51.378;0.094;2022-12-10T17:00:23;0.20;86.80
26254;DHT22;53339;51.378;0.094;2022-12-10T17:02:51;0.10;86.50
26254;DHT22;53339;51.378;0.094;2022-12-10T17:05:24;0.00;85.90
26254;DHT22;53339;51.378;0.094;2022-12-10T17:07:53;-0.20;86.20
26254;DHT22;53339;51.378;0.094;2022-12-10T17:10:21;-0.20;87.00
26254;DHT22;53339;51.378;0.094;2022-12-10T17:13:10;-0.20;87.00
26254;DHT22;53339;51.378;0.094;2022-12-10T17:15:40;-0.40;86.30
26254;DHT22;53339;51.378;0.094;2022-12-10T17:18:16;-0.50;86.70
26254;DHT22;53339;51.378;0.094;2022-12-10T17:20:45;-0.50;87.20
26254;DHT22;53339;51.378;0.094;2022-12-10T17:23:13;-0.40;87.30
26254;DHT22;53339;51.378;0.094;2022-12-10T17:25:41;-0.50;86.80
26254;DHT22;53339;51.378;0.094;2022-12-10T17:28:17;-0.60;86.90
26254;DHT22;53339;51.378;0.094;2022-12-10T17:30:46;-0.50;87.40
26254;DHT22;53339;51.378;0.094;2022-12-10T17:33:15;-0.50;87.50
26254;DHT22;53339;51.378;0.094;2022-12-10T17:35:45;-0.40;87.30
26254;DHT22;53339;51.378;0.094;2022-12-10T17:38:16;-0.50;87.30
26254;DHT22;53339;51.378;0.094;2022-12-10T17:40:44;-0.50;87.50
26254;DHT22;53339;51.378;0.094;2022-12-10T17:43:12;-0.50;87.30
26254;DHT22;53339;51.378;0.094;2022-12-10T17:45:40;-0.50;87.00
26254;DHT22;53339;51.378;0.094;2022-12-10T17:48:12;-0.60;87.10
26254;DHT22;53339;51.378;0.094;2022-12-10T17:50:41;-0.60;87.40
26254;DHT22;53339;51.378;0.094;2022-12-10T17:53:12;-0.60;87.30
26254;DHT22;53339;51.378;0.094;2022-12-10T17:55:45;-0.70;87.00
26254;DHT22;53339;51.378;0.094;2022-12-10T17:58:15;-0.80;87.00
26254;DHT22;53339;51.378;0.094;2022-12-10T18:00:43;-0.80;87.30
26254;DHT22;53339;51.378;0.094;2022-12-10T18:03:11;-0.80;87.30
26254;DHT22;53339;51.378;0.094;2022-12-10T18:05:39;-0.90;86.90
26254;DHT22;53339;51.378;0.094;2022-12-10T18:08:08;-1.00;86.80
26254;DHT22;53339;51.378;0.094;2022-12-10T18:10:36;-1.00;87.30
26254;DHT22;53339;51.378;0.094;2022-12-10T18:13:04;-0.90;87.40
26254;DHT22;53339;51.378;0.094;2022-12-10T18:15:31;-1.00;87.20
26254;DHT22;53339;51.378;0.094;2022-12-10T18:17:59;-1.00;87.10
26254;DHT22;53339;51.378;0.094;2022-12-10T18:20:32;-1.00;87.40
26254;DHT22;53339;51.378;0.094;2022-12-10T18:23:01;-0.90;87.50
26254;DHT22;53339;51.378;0.094;2022-12-10T18:25:29;-0.80;87.70
26254;DHT22;53339;51.378;0.094;2022-12-10T18:28:02;-0.70;87.80
26254;DHT22;53339;51.378;0.094;2022-12-10T18:30:30;-0.60;87.80